sensor_id;sensor_type;location;lat;lon;timestamp;pressure;altitude;pressure_sealevel;temperature;humidity
52745;BME280;38637;49.984;20.426;2023-01-30T19:07:35;98343.56;;;2.85;74.81
52745;BME280;38637;49.984;20.426;2023-01-30T19:10:01;98344.13;;;2.87;75.17
52745;BME280;38637;49.984;20.426;2023-01-30T19:12:26;98344.25;;;2.92;74.91
52745;BME280;38637;49.984;20.426;2023-01-30T19:15:10;98338.72;;;2.87;74.77
52745;BME280;38637;49.984;20.426;2023-01-30T19:17:35;98348.69;;;2.86;74.44
52745;BME280;38637;49.984;20.426;2023-01-30T19:20:01;98334.63;;;2.84;74.43
52745;BME280;38637;49.984;20.426;2023-01-30T19:22:28;98341.34;;;2.82;74.63
52745;BME280;38637;49.984;20.426;2023-01-30T19:24:54;98337.78;;;2.81;74.32
52745;BME280;38637;49.984;20.426;2023-01-30T19:27:19;98337.78;;;2.81;74.78
52745;BME280;38637;49.984;20.426;2023-01-30T19:29:45;98343.56;;;2.85;75.21
52745;BME280;38637;49.984;20.426;2023-01-30T19:32:11;98348.09;;;2.84;74.65
52745;BME280;38637;49.984;20.426;2023-01-30T19:34:36;98340.28;;;2.83;74.13
52745;BME280;38637;49.984;20.426;2023-01-30T19:37:02;98343.44;;;2.80;74.57
52745;BME280;38637;49.984;20.426;2023-01-30T19:39:27;98350.81;;;2.84;74.13
52745;BME280;38637;49.984;20.426;2023-01-30T19:41:53;98339.78;;;2.86;74.00
52745;BME280;38637;49.984;20.426;2023-01-30T19:44:18;98353.03;;;2.87;74.49
52745;BME280;38637;49.984;20.426;2023-01-30T19:46:43;98342.25;;;2.87;74.16
52745;BME280;38637;49.984;20.426;2023-01-30T19:49:10;98357.38;;;2.88;73.93
52745;BME280;38637;49.984;20.426;2023-01-30T19:51:35;98356.09;;;2.91;74.06
52745;BME280;38637;49.984;20.426;2023-01-30T19:54:04;98344.25;;;2.92;74.51
52745;BME280;38637;49.984;20.426;2023-01-30T19:56:30;98344.47;;;2.90;74.31
52745;BME280;38637;49.984;20.426;2023-01-30T19:58:58;98359.34;;;2.93;74.43
52745;BME280;38637;49.984;20.426;2023-01-30T20:01:26;98346.94;;;2.92;74.37
52745;BME280;38637;49.984;20.426;2023-01-30T20:03:54;98350.22;;;2.94;74.34
52745;BME280;38637;49.984;20.426;2023-01-30T20:06:24;98343.16;;;2.93;74.04
52745;BME280;38637;49.984;20.426;2023-01-30T20:08:56;98346.22;;;2.96;74.13
52745;BME280;38637;49.984;20.426;2023-01-30T20:11:23;98340.47;;;2.93;74.38
52745;BME280;38637;49.984;20.426;2023-01-30T20:13:49;98343.50;;;2.96;74.47
52745;BME280;38637;49.984;20.426;2023-01-30T20:16:17;98345.66;;;2.94;73.86
52745;BME280;38637;49.984;20.426;2023-01-30T20:18:45;98340.00;;;2.96;73.92
52745;BME280;38637;49.984;20.426;2023-01-30T20:21:17;98337.31;;;2.96;74.00
52745;BME280;38637;49.984;20.426;2023-01-30T20:23:43;98342.69;;;2.96;73.86
52745;BME280;38637;49.984;20.426;2023-01-30T20:26:12;98334.59;;;2.96;73.93
52745;BME280;38637;49.984;20.426;2023-01-30T20:28:37;98329.00;;;2.97;74.18
52745;BME280;38637;49.984;20.426;2023-01-30T20:31:15;98338.72;;;2.98;73.98
52745;BME280;38637;49.984;20.426;2023-01-30T20:33:41;98345.16;;;2.97;74.00
52745;BME280;38637;49.984;20.426;2023-01-30T20:36:09;98341.19;;;3.00;73.82
52745;BME280;38637;49.984;20.426;2023-01-30T20:38:37;98338.22;;;3.02;73.73
52745;BME280;38637;49.984;20.426;2023-01-30T20:41:07;98340.34;;;2.99;74.21
52745;BME280;38637;49.984;20.426;2023-01-30T20:43:35;98342.81;;;3.01;73.80
52745;BME280;38637;49.984;20.426;2023-01-30T20:46:04;98335.53;;;3.02;74.31
52745;BME280;38637;49.984;20.426;2023-01-30T20:48:29;98337.41;;;3.01;74.40
52745;BME280;38637;49.984;20.426;2023-01-30T20:50:55;98332.84;;;3.02;74.38
52745;BME280;38637;49.984;20.426;2023-01-30T20:53:20;98325.81;;;3.01;74.68
52745;BME280;38637;49.984;20.426;2023-01-30T20:55:45;98333.66;;;3.02;74.99
52745;BME280;38637;49.984;20.426;2023-01-30T20:58:12;98333.66;;;3.02;74.38
52745;BME280;38637;49.984;20.426;2023-01-30T21:00:38;98323.13;;;3.01;74.52
52745;BME280;38637;49.984;20.426;2023-01-30T21:03:03;98335.78;;;3.00;74.67
52745;BME280;38637;49.984;20.426;2023-01-30T21:05:28;98337.16;;;3.03;74.47
52745;BME280;38637;49.984;20.426;2023-01-30T21:07:54;98332.03;;;3.01;74.43
52745;BME280;38637;49.984;20.426;2023-01-30T21:10:19;98340.13;;;3.01;74.64
52745;BME280;38637;49.984;20.426;2023-01-30T21:12:44;98338.22;;;3.02;74.82
52745;BME280;38637;49.984;20.426;2023-01-30T21:15:10;98346.09;;;3.03;74.79
52745;BME280;38637;49.984;20.426;2023-01-30T21:17:35;98347.13;;;3.02;74.48
52745;BME280;38637;49.984;20.426;2023-01-30T21:20:00;98338.56;;;3.05;75.08
52745;BME280;38637;49.984;20.426;2023-01-30T21:22:26;98346.66;;;3.05;75.03
52745;BME280;38637;49.984;20.426;2023-01-30T21:24:51;98357.22;;;3.07;74.92
52745;BME280;38637;49.984;20.426;2023-01-30T21:27:16;98377.16;;;3.06;75.16
52745;BME280;38637;49.984;20.426;2023-01-30T21:29:43;98379.63;;;3.07;75.07
52745;BME280;38637;49.984;20.426;2023-01-30T21:32:08;98372.34;;;3.08;74.84
52745;BME280;38637;49.984;20.426;2023-01-30T21:34:34;98375.03;;;3.08;75.31
52745;BME280;38637;49.984;20.426;2023-01-30T21:36:59;98389.59;;;3.07;75.83
52745;BME280;38637;49.984;20.426;2023-01-30T21:39:43;98379.03;;;3.05;77.95
52745;BME280;38637;49.984;20.426;2023-01-30T21:42:27;98391.81;;;2.98;80.90
52745;BME280;38637;49.984;20.426;2023-01-30T21:45:11;98387.38;;;2.92;82.60
52745;BME280;38637;49.984;20.426;2023-01-30T21:47:36;98403.56;;;2.92;82.78
52745;BME280;38637;49.984;20.426;2023-01-30T21:50:01;98399.31;;;2.84;83.60
52745;BME280;38637;49.984;20.426;2023-01-30T21:52:27;98403.81;;;2.79;83.47
52745;BME280;38637;49.984;20.426;2023-01-30T21:54:52;98395.94;;;2.77;83.88
52745;BME280;38637;49.984;20.426;2023-01-30T21:57:17;98420.22;;;2.77;83.99
52745;BME280;38637;49.984;20.426;2023-01-30T21:59:42;98414.22;;;2.75;84.15
52745;BME280;38637;49.984;20.426;2023-01-30T22:02:09;98424.19;;;2.74;83.99
52745;BME280;38637;49.984;20.426;2023-01-30T22:04:34;98413.75;;;2.78;83.99
52745;BME280;38637;49.984;20.426;2023-01-30T22:07:00;98428.28;;;2.77;84.18
52745;BME280;38637;49.984;20.426;2023-01-30T22:09:25;98432.88;;;2.76;84.38
52745;BME280;38637;49.984;20.426;2023-01-30T22:11:50;98433.94;;;2.75;84.68
52745;BME280;38637;49.984;20.426;2023-01-30T22:14:15;98417.75;;;2.75;85.57
52745;BME280;38637;49.984;20.426;2023-01-30T22:16:41;98425.47;;;2.72;85.69
52745;BME280;38637;49.984;20.426;2023-01-30T22:19:07;98418.69;;;2.69;85.06
52745;BME280;38637;49.984;20.426;2023-01-30T22:21:34;98422.44;;;2.68;85.59
52745;BME280;38637;49.984;20.426;2023-01-30T22:24:01;98427.94;;;2.73;85.17
52745;BME280;38637;49.984;20.426;2023-01-30T22:26:27;98433.09;;;2.75;84.71
52745;BME280;38637;49.984;20.426;2023-01-30T22:28:54;98434.63;;;2.71;84.68
52745;BME280;38637;49.984;20.426;2023-01-30T22:31:21;98431.56;;;2.67;83.97
52745;BME280;38637;49.984;20.426;2023-01-30T22:33:48;98435.34;;;2.66;83.89
52745;BME280;38637;49.984;20.426;2023-01-30T22:36:14;98441.75;;;2.65;84.46
52745;BME280;38637;49.984;20.426;2023-01-30T22:38:44;98446.94;;;2.67;84.08
52745;BME280;38637;49.984;20.426;2023-01-30T22:41:13;98453.47;;;2.71;83.97
52745;BME280;38637;49.984;20.426;2023-01-30T22:43:53;98459.94;;;2.70;84.35
52745;BME280;38637;49.984;20.426;2023-01-30T22:46:20;98458.41;;;2.62;84.32
52745;BME280;38637;49.984;20.426;2023-01-30T22:48:45;98466.63;;;2.67;84.31
52745;BME280;38637;49.984;20.426;2023-01-30T22:53:44;98464.72;;;2.68;85.16
52745;BME280;38637;49.984;20.426;2023-01-30T22:56:14;98474.00;;;2.72;84.97
52745;BME280;38637;49.984;20.426;2023-01-30T22:58:41;98461.94;;;2.74;84.72
52745;BME280;38637;49.984;20.426;2023-01-30T23:01:10;98478.69;;;2.76;84.52
52745;BME280;38637;49.984;20.426;2023-01-30T23:03:37;98475.88;;;2.71;85.19
52745;BME280;38637;49.984;20.426;2023-01-30T23:06:04;98474.25;;;2.70;85.75
52745;BME280;38637;49.984;20.426;2023-01-30T23:08:35;98464.88;;;2.73;84.84
52745;BME280;38637;49.984;20.426;2023-01-30T23:11:19;98475.88;;;2.71;85.47
52745;BME280;38637;49.984;20.426;2023-01-30T23:13:47;98476.47;;;2.73;85.46
52745;BME280;38637;49.984;20.426;2023-01-30T23:16:15;98473.41;;;2.70;85.03
52745;BME280;38637;49.984;20.426;2023-01-30T23:18:40;98487.94;;;2.69;85.37
52745;BME280;38637;49.984;20.426;2023-01-30T23:21:28;98479.50;;;2.65;85.16
52745;BME280;38637;49.984;20.426;2023-01-30T23:23:57;98483.72;;;2.61;85.52
52745;BME280;38637;49.984;20.426;2023-01-30T23:26:24;98479.59;;;2.59;85.52
52745;BME280;38637;49.984;20.426;2023-01-30T23:28:50;98479.13;;;2.62;85.74
52745;BME280;38637;49.984;20.426;2023-01-30T23:31:18;98472.94;;;2.61;85.16
52745;BME280;38637;49.984;20.426;2023-01-30T23:33:44;98475.16;;;2.64;85.23
52745;BME280;38637;49.984;20.426;2023-01-30T23:36:12;98483.25;;;2.64;85.82
52745;BME280;38637;49.984;20.426;2023-01-30T23:38:38;98483.38;;;2.58;85.42
52745;BME280;38637;49.984;20.426;2023-01-30T23:41:12;98487.91;;;2.57;86.19
52745;BME280;38637;49.984;20.426;2023-01-30T23:43:39;98489.72;;;2.63;86.13
52745;BME280;38637;49.984;20.426;2023-01-30T23:46:10;98488.19;;;2.67;85.69
52745;BME280;38637;49.984;20.426;2023-01-30T23:48:36;98495.19;;;2.68;85.26
52745;BME280;38637;49.984;20.426;2023-01-30T23:51:01;98485.22;;;2.69;84.77
52745;BME280;38637;49.984;20.426;2023-01-30T23:53:27;98491.09;;;2.66;85.05
52745;BME280;38637;49.984;20.426;2023-01-30T23:55:53;98489.00;;;2.68;84.77
52745;BME280;38637;49.984;20.426;2023-01-30T23:58:18;98500.59;;;2.68;84.84
